Time;durP1;ratioP1;P1;durP2;ratioP2;P2;SDS_P1;SDS_P2;PMS_P1;PMS_P2;Temp;Humidity;BMP_temperature;BMP_pressure;BME280_temperature;BME280_humidity;BME280_pressure;Samples;Min_cycle;Max_cycle;Signal;HPM_P1;HPM_P2
2022/01/19 16:27:51;;;;;;;94.25;53.78;;;;;;;3.27;100.00;101413.19;4907580;27;20436;-86
2022/01/19 16:30:18;;;;;;;82.40;47.40;;;;;;;3.25;100.00;101407.16;4895373;28;20049;-85
2022/01/19 16:32:43;;;;;;;84.32;41.47;;;;;;;3.29;100.00;101403.34;4893403;28;20506;-86
2022/01/19 16:35:09;;;;;;;93.75;51.40;;;;;;;3.31;100.00;101406.75;4880069;28;20056;-86
2022/01/19 16:37:35;;;;;;;94.10;48.88;;;;;;;3.30;100.00;101401.53;4969447;28;20102;-86
2022/01/19 16:40:01;;;;;;;97.68;50.20;;;;;;;3.31;100.00;101396.13;4955913;28;20051;-86
2022/01/19 16:42:26;;;;;;;106.03;59.55;;;;;;;3.29;100.00;101392.72;4943962;28;20485;-86
2022/01/19 16:44:53;;;;;;;95.28;45.20;;;;;;;3.29;100.00;101390.06;4962878;28;20043;-87
2022/01/19 16:47:21;;;;;;;84.53;38.05;;;;;;;3.26;100.00;101392.94;4960968;28;20077;-86
2022/01/19 16:49:48;;;;;;;102.85;48.72;;;;;;;3.30;100.00;101383.78;4959374;28;20057;-85
2022/01/19 16:52:15;;;;;;;105.00;48.55;;;;;;;3.31;100.00;101380.22;4965052;28;20046;-86
2022/01/19 16:54:40;;;;;;;98.78;43.90;;;;;;;3.30;100.00;101375.84;4962511;28;20548;-85
2022/01/19 16:57:06;;;;;;;105.10;50.17;;;;;;;3.32;100.00;101387.22;4877398;28;20053;-86
2022/01/19 16:59:31;;;;;;;108.05;52.35;;;;;;;3.32;100.00;101387.22;4878198;28;20547;-86
2022/01/19 17:01:57;;;;;;;94.65;40.25;;;;;;;3.32;100.00;101391.66;4884631;28;20228;-86
2022/01/19 17:04:23;;;;;;;108.90;51.50;;;;;;;3.36;100.00;101391.34;4902154;28;20169;-85
2022/01/19 17:06:48;;;;;;;115.95;56.00;;;;;;;3.36;100.00;101396.66;4888741;28;20128;-86
2022/01/19 17:09:13;;;;;;;112.85;54.83;;;;;;;3.38;100.00;101408.03;4903541;28;20053;-86
2022/01/19 17:11:45;;;;;;;109.65;54.35;;;;;;;3.39;100.00;101393.81;4966492;28;20050;-85
2022/01/19 17:14:19;;;;;;;108.32;49.60;;;;;;;3.41;100.00;101390.19;4985365;28;20054;-86
2022/01/19 17:16:54;;;;;;;121.75;60.67;;;;;;;3.42;100.00;101402.50;4965048;28;20415;-86
2022/01/19 17:19:24;;;;;;;110.93;56.90;;;;;;;3.43;100.00;101401.56;4985862;28;20070;-86
2022/01/19 17:21:50;;;;;;;112.57;48.03;;;;;;;3.45;100.00;101394.34;4984055;28;20039;-86
2022/01/19 17:24:16;;;;;;;121.55;56.08;;;;;;;3.46;100.00;101407.50;4970648;28;20386;-86
2022/01/19 17:26:42;;;;;;;105.47;48.47;;;;;;;3.46;100.00;101409.31;4981073;28;20044;-86
2022/01/19 17:29:07;;;;;;;121.63;57.85;;;;;;;3.49;100.00;101401.16;5003334;28;20050;-86
2022/01/19 17:31:33;;;;;;;127.47;61.90;;;;;;;3.51;100.00;101409.84;4992249;28;20128;-86
2022/01/19 17:33:59;;;;;;;120.20;55.90;;;;;;;3.52;100.00;101406.25;4993777;28;20082;-86
2022/01/19 17:36:24;;;;;;;133.75;68.72;;;;;;;3.51;100.00;101415.16;4993170;28;20042;-87
2022/01/19 17:38:50;;;;;;;122.35;58.47;;;;;;;3.53;100.00;101407.94;4965842;28;20508;-86
2022/01/19 17:41:15;;;;;;;126.05;69.30;;;;;;;3.55;100.00;101401.56;4972059;28;20090;-86
2022/01/19 17:43:40;;;;;;;114.45;51.60;;;;;;;3.56;100.00;101399.75;4963494;28;20065;-85
2022/01/19 17:46:16;;;;;;;115.32;56.42;;;;;;;3.56;100.00;101397.97;4976033;28;20047;-86
2022/01/19 17:53:39;;;;;;;105.00;48.80;;;;;;;3.65;100.00;101404.44;4973322;28;20285;-86
2022/01/19 17:56:05;;;;;;;131.40;62.15;;;;;;;3.67;100.00;101405.19;5102637;23;21021;-85
2022/01/19 17:58:30;;;;;;;107.93;50.55;;;;;;;3.70;100.00;101406.78;4915887;28;20136;-85
2022/01/19 18:00:57;;;;;;;107.43;52.78;;;;;;;3.72;100.00;101400.44;4878968;28;20048;-87
2022/01/19 18:03:23;;;;;;;118.32;57.92;;;;;;;3.74;100.00;101401.19;4859574;29;20040;-87
2022/01/19 18:05:49;;;;;;;114.78;55.42;;;;;;;3.75;100.00;101394.06;4874182;29;20112;-87
2022/01/19 18:08:15;;;;;;;106.70;51.42;;;;;;;3.77;100.00;101377.09;4866035;29;20128;-86
2022/01/19 18:10:40;;;;;;;101.72;49.85;;;;;;;3.81;100.00;101394.47;4859156;29;20467;-85
2022/01/19 18:13:06;;;;;;;116.95;60.72;;;;;;;3.81;100.00;101389.16;4869254;29;20177;-86
2022/01/19 18:15:31;;;;;;;95.85;46.92;;;;;;;3.84;100.00;101388.97;4875253;28;20056;-86
2022/01/19 18:17:59;;;;;;;118.22;60.17;;;;;;;3.88;100.00;101389.59;4887075;29;20049;-86
2022/01/19 18:20:26;;;;;;;92.45;50.80;;;;;;;3.90;100.00;101400.97;4889893;29;20647;-86
2022/01/19 18:22:51;;;;;;;98.03;47.10;;;;;;;3.92;100.00;101406.19;4958960;28;20350;-86
2022/01/19 18:25:17;;;;;;;104.63;57.55;;;;;;;3.95;100.00;101405.97;4985394;28;20137;-86
2022/01/19 18:27:44;;;;;;;109.75;56.47;;;;;;;3.95;100.00;101404.16;4970087;28;20047;-86
2022/01/19 18:30:10;;;;;;;105.00;52.25;;;;;;;3.97;100.00;101406.69;4912990;28;20124;-86
2022/01/19 18:32:37;;;;;;;103.35;49.65;;;;;;;3.99;100.00;101407.44;4882792;29;20049;-86
2022/01/19 18:35:04;;;;;;;104.30;53.80;;;;;;;4.00;100.00;101414.44;4867653;29;20046;-87
2022/01/19 18:37:29;;;;;;;109.15;60.95;;;;;;;4.01;100.00;101421.47;4961763;28;20049;-86
2022/01/19 18:39:55;;;;;;;128.88;65.78;;;;;;;4.03;100.00;101419.56;4906264;28;20131;-87
2022/01/19 18:42:21;;;;;;;98.35;49.05;;;;;;;4.05;100.00;101422.94;4970554;28;20402;-87
2022/01/19 18:44:49;;;;;;;136.40;79.63;;;;;;;4.08;100.00;101433.34;4968423;28;20129;-87
2022/01/19 18:47:14;;;;;;;107.05;57.95;;;;;;;4.10;100.00;101431.44;4986312;28;20046;-87
2022/01/19 18:49:40;;;;;;;106.32;57.08;;;;;;;4.14;100.00;101442.69;4969287;28;20097;-87
2022/01/19 18:52:06;;;;;;;96.90;50.78;;;;;;;4.16;100.00;101430.16;4970457;28;20046;-86
2022/01/19 18:54:31;;;;;;;102.47;55.53;;;;;;;4.17;100.00;101446.03;4970297;28;20046;-86
2022/01/19 18:56:58;;;;;;;95.18;52.60;;;;;;;4.19;100.00;101440.59;4969381;28;20054;-87
2022/01/19 18:59:24;;;;;;;94.40;42.90;;;;;;;4.22;100.00;101437.72;4911227;28;20380;-86
2022/01/19 19:01:50;;;;;;;92.10;47.42;;;;;;;4.22;100.00;101435.91;4959189;28;20045;-87
2022/01/19 19:04:16;;;;;;;92.03;49.33;;;;;;;4.25;100.00;101446.31;4970408;28;20039;-87
2022/01/19 19:06:43;;;;;;;91.68;46.92;;;;;;;4.27;100.00;101428.47;4970264;28;20057;-86
2022/01/19 19:09:13;;;;;;;101.18;56.45;;;;;;;4.30;100.00;101438.03;4986579;28;20046;-87
2022/01/19 19:14:13;;;;;;;97.35;54.88;;;;;;;4.26;100.00;101445.38;4971071;28;19914;-87
2022/01/19 19:16:38;;;;;;;88.75;43.35;;;;;;;4.32;100.00;101437.94;4955202;28;20045;-87
2022/01/19 19:19:05;;;;;;;85.28;48.10;;;;;;;4.36;100.00;101450.03;4970704;28;20070;-87
2022/01/19 19:21:30;;;;;;;80.13;41.72;;;;;;;4.40;100.00;101451.50;4977228;28;20434;-86
2022/01/19 19:23:56;;;;;;;87.47;42.35;;;;;;;4.39;100.00;101447.16;4988150;28;20051;-87
2022/01/19 19:26:21;;;;;;;90.22;46.65;;;;;;;4.41;100.00;101450.56;4971492;28;20406;-86
2022/01/19 19:28:47;;;;;;;84.07;44.45;;;;;;;4.42;100.00;101449.59;4985338;28;20126;-86
2022/01/19 19:31:13;;;;;;;80.95;38.92;;;;;;;4.43;100.00;101464.56;4972428;28;20137;-87
2022/01/19 19:33:38;;;;;;;80.88;43.05;;;;;;;4.45;100.00;101447.56;4974619;28;20561;-86
2022/01/19 19:36:04;;;;;;;79.63;41.72;;;;;;;4.46;100.00;101464.34;4952899;28;20094;-86
2022/01/19 19:38:30;;;;;;;75.65;39.38;;;;;;;4.46;100.00;101467.00;4985341;28;20110;-87
2022/01/19 19:40:55;;;;;;;66.55;33.42;;;;;;;4.48;100.00;101465.09;4969260;28;20050;-87
2022/01/19 19:43:21;;;;;;;69.63;35.08;;;;;;;4.49;100.00;101458.84;4968938;28;20134;-87
2022/01/19 19:45:47;;;;;;;65.00;32.67;;;;;;;4.51;100.00;101463.06;4896299;28;20140;-85
2022/01/19 19:48:12;;;;;;;62.50;28.58;;;;;;;4.53;100.00;101468.28;4872394;29;20500;-85
2022/01/19 19:50:38;;;;;;;65.57;27.38;;;;;;;4.55;100.00;101485.00;4887439;29;20041;-86
2022/01/19 19:53:04;;;;;;;52.20;23.95;;;;;;;4.56;100.00;101488.50;4898186;28;20124;-86
2022/01/19 19:55:32;;;;;;;70.70;31.42;;;;;;;4.56;100.00;101469.88;4936540;28;20105;-87
2022/01/19 19:57:58;;;;;;;67.00;27.55;;;;;;;4.58;100.00;101484.78;4984459;28;20055;-85
2022/01/19 20:00:26;;;;;;;62.33;30.38;;;;;;;4.57;100.00;101493.69;4969344;28;20407;-86
2022/01/19 20:02:52;;;;;;;55.10;24.07;;;;;;;4.59;100.00;101505.06;4967534;28;20050;-85
2022/01/19 20:05:18;;;;;;;66.35;26.20;;;;;;;4.59;100.00;101497.09;4983306;28;20042;-87
2022/01/19 20:07:43;;;;;;;52.72;24.02;;;;;;;4.60;100.00;101508.56;4982313;28;20055;-86
2022/01/19 20:10:11;;;;;;;55.13;26.45;;;;;;;4.59;100.00;101513.03;4970000;28;20047;-86
2022/01/19 20:12:36;;;;;;;55.03;21.85;;;;;;;4.60;100.00;101512.06;4968022;28;20049;-87
2022/01/19 20:15:03;;;;;;;53.10;18.58;;;;;;;4.61;100.00;101508.47;4967891;28;20538;-86
2022/01/19 20:17:30;;;;;;;53.17;20.52;;;;;;;4.61;100.00;101521.78;4984622;28;20138;-86
2022/01/19 20:19:55;;;;;;;52.92;16.60;;;;;;;4.60;100.00;101522.72;4968290;28;20043;-86
2022/01/19 20:22:20;;;;;;;44.70;14.40;;;;;;;4.61;100.00;101536.88;4969196;28;20598;-87
2022/01/19 20:24:46;;;;;;;43.08;12.00;;;;;;;4.61;100.00;101543.03;4895588;28;20045;-86
2022/01/19 20:27:12;;;;;;;35.80;9.68;;;;;;;4.61;100.00;101543.03;4976026;28;20051;-86
2022/01/19 20:29:37;;;;;;;36.05;10.20;;;;;;;4.62;100.00;101538.56;4951044;28;20042;-87
2022/01/19 20:32:03;;;;;;;34.83;9.20;;;;;;;4.59;100.00;101547.59;4947293;28;20499;-86
2022/01/19 20:34:28;;;;;;;34.08;8.90;;;;;;;4.60;100.00;101536.00;4951141;28;20039;-86
2022/01/19 20:36:54;;;;;;;32.90;8.70;;;;;;;4.60;100.00;101551.97;4938827;28;20038;-86
2022/01/19 20:39:20;;;;;;;33.13;7.97;;;;;;;4.61;100.00;101552.84;4960037;28;20061;-87
2022/01/19 20:41:45;;;;;;;30.52;6.78;;;;;;;4.60;100.00;101543.13;4948353;28;20039;-87
2022/01/19 20:44:12;;;;;;;34.50;6.93;;;;;;;4.60;100.00;101556.44;4964763;28;20062;-87
2022/01/19 20:46:40;;;;;;;37.65;8.23;;;;;;;4.59;100.00;101560.91;4895602;28;20436;-87
2022/01/19 20:49:06;;;;;;;31.75;6.57;;;;;;;4.60;100.00;101557.28;4945531;28;20046;-87
2022/01/19 20:51:31;;;;;;;30.65;5.90;;;;;;;4.60;100.00;101557.28;4945603;28;20893;-87
2022/01/19 20:53:56;;;;;;;30.83;6.95;;;;;;;4.61;100.00;101552.84;4957831;28;20402;-87
2022/01/19 20:56:22;;;;;;;34.78;5.97;;;;;;;4.59;100.00;101563.56;4984437;28;20475;-87
2022/01/19 20:58:48;;;;;;;24.75;5.97;;;;;;;4.58;100.00;101564.53;4968479;28;20090;-86
2022/01/19 21:01:13;;;;;;;23.92;6.20;;;;;;;4.59;100.00;101571.53;4905136;28;20141;-87
2022/01/19 21:03:39;;;;;;;34.42;6.25;;;;;;;4.58;100.00;101575.16;4901717;28;20047;-87
2022/01/19 21:06:04;;;;;;;50.13;11.23;;;;;;;4.55;100.00;101586.00;4948660;28;20126;-87
2022/01/19 21:08:29;;;;;;;24.42;5.60;;;;;;;4.51;100.00;101595.13;4967605;28;20047;-87
2022/01/19 21:10:55;;;;;;;27.23;4.70;;;;;;;4.51;100.00;101595.13;4983309;28;20042;-87
2022/01/19 21:13:20;;;;;;;28.92;5.43;;;;;;;4.49;100.00;101599.72;4969616;28;20062;-87
2022/01/19 21:15:46;;;;;;;28.05;5.10;;;;;;;4.47;100.00;101613.09;4970311;28;20039;-86
2022/01/19 21:18:11;;;;;;;30.38;6.65;;;;;;;4.44;100.00;101612.47;4987171;28;20039;-87
2022/01/19 21:20:38;;;;;;;24.85;6.05;;;;;;;4.42;100.00;101607.25;4972219;28;20050;-87
2022/01/19 21:23:04;;;;;;;20.38;4.78;;;;;;;4.37;100.00;101625.31;4986217;28;20066;-87
2022/01/19 21:25:29;;;;;;;28.40;5.53;;;;;;;4.34;100.00;101625.50;4986485;28;20070;-87
2022/01/19 21:27:55;;;;;;;21.75;6.00;;;;;;;4.29;100.00;101615.22;4901560;28;20061;-87
2022/01/19 21:30:22;;;;;;;26.42;5.35;;;;;;;4.27;100.00;101619.75;4970344;28;20047;-87
2022/01/19 21:32:49;;;;;;;24.30;6.13;;;;;;;4.23;100.00;101628.03;4903080;28;20052;-86
2022/01/19 21:35:17;;;;;;;25.10;5.10;;;;;;;4.18;100.00;101638.13;4923443;28;20054;-87
2022/01/19 21:37:43;;;;;;;22.02;4.85;;;;;;;4.14;100.00;101633.97;4987716;28;20035;-87
2022/01/19 21:40:09;;;;;;;26.20;5.05;;;;;;;4.11;100.00;101631.53;4972054;28;20052;-87
2022/01/19 21:42:34;;;;;;;22.80;5.03;;;;;;;4.02;100.00;101640.94;4971721;28;20047;-86
2022/01/19 21:45:00;;;;;;;17.77;4.72;;;;;;;3.98;100.00;101647.44;4969331;28;20046;-86
2022/01/19 21:47:25;;;;;;;21.10;5.25;;;;;;;3.93;100.00;101636.25;4971014;28;20070;-88
2022/01/19 21:49:51;;;;;;;23.45;5.43;;;;;;;3.91;100.00;101646.94;4970723;28;20117;-86
2022/01/19 21:52:17;;;;;;;22.17;4.47;;;;;;;3.86;100.00;101630.50;4969103;28;20563;-87
2022/01/19 21:54:42;;;;;;;17.88;5.13;;;;;;;3.80;100.00;101626.44;4969973;28;20035;-87
2022/01/19 21:57:08;;;;;;;24.95;6.63;;;;;;;3.76;100.00;101630.22;4887785;28;20064;-87
2022/01/19 21:59:34;;;;;;;22.45;6.32;;;;;;;3.71;100.00;101632.34;4889144;29;20103;-87
2022/01/19 22:02:00;;;;;;;22.05;6.65;;;;;;;3.68;100.00;101642.28;4898094;28;20033;-87
2022/01/19 22:04:25;;;;;;;21.63;5.95;;;;;;;3.63;100.00;101641.75;4912671;28;20120;-87
2022/01/19 22:06:51;;;;;;;27.13;6.28;;;;;;;3.56;100.00;101638.63;4892207;28;20496;-87
2022/01/19 22:09:19;;;;;;;25.10;5.47;;;;;;;3.53;100.00;101639.66;4971265;28;20563;-87
2022/01/19 22:11:52;;;;;;;19.95;5.32;;;;;;;3.48;100.00;101646.22;4986832;28;20054;-86
2022/01/19 22:14:18;;;;;;;17.02;3.92;;;;;;;3.37;100.00;101639.81;4987413;28;20410;-87
2022/01/19 22:16:44;;;;;;;19.27;4.57;;;;;;;3.37;100.00;101634.50;4973187;28;20051;-87
2022/01/19 22:19:10;;;;;;;27.38;4.72;;;;;;;3.33;100.00;101643.59;4972602;28;20046;-87
2022/01/19 22:21:36;;;;;;;25.67;4.50;;;;;;;3.29;100.00;101649.19;4987729;28;20039;-87
2022/01/19 22:24:01;;;;;;;23.15;4.60;;;;;;;3.27;100.00;101649.28;4982449;28;20050;-87
2022/01/19 22:26:27;;;;;;;20.33;3.92;;;;;;;3.23;100.00;101642.47;4952526;28;20047;-86
2022/01/19 22:28:52;;;;;;;25.15;3.95;;;;;;;3.21;100.00;101644.38;4967580;28;20035;-87
2022/01/19 22:31:18;;;;;;;21.00;4.65;;;;;;;3.17;100.00;101642.88;4970043;28;20465;-87
2022/01/19 22:33:43;;;;;;;26.33;6.13;;;;;;;3.15;100.00;101645.59;4972490;28;20038;-87
2022/01/19 22:36:09;;;;;;;22.75;5.47;;;;;;;3.15;100.00;101648.25;4983938;28;20550;-87
2022/01/19 22:38:34;;;;;;;27.77;5.75;;;;;;;3.11;100.00;101643.25;4953225;28;20409;-87
2022/01/19 22:41:00;;;;;;;22.17;4.97;;;;;;;3.06;100.00;101648.81;4885470;28;20101;-87
2022/01/19 22:43:25;;;;;;;33.60;6.82;;;;;;;3.05;100.00;101643.59;4901063;28;20045;-87
2022/01/19 22:45:51;;;;;;;27.65;6.72;;;;;;;3.02;100.00;101649.97;4876314;28;20046;-87
2022/01/19 22:48:16;;;;;;;29.92;5.93;;;;;;;2.98;100.00;101648.44;4959902;28;20110;-87
2022/01/19 22:50:41;;;;;;;27.52;7.22;;;;;;;2.98;100.00;101656.41;4954131;28;20044;-88
2022/01/19 22:53:07;;;;;;;28.20;6.68;;;;;;;2.92;100.00;101657.63;4967287;28;20135;-88
2022/01/19 22:55:32;;;;;;;21.25;4.85;;;;;;;2.90;100.00;101667.47;4952229;28;20375;-86
2022/01/19 22:57:58;;;;;;;26.10;5.72;;;;;;;2.88;100.00;101676.47;4964628;28;20038;-87
2022/01/19 23:00:24;;;;;;;26.77;6.15;;;;;;;2.85;100.00;101674.00;4986952;28;20496;-87
2022/01/19 23:02:50;;;;;;;31.23;6.38;;;;;;;2.85;100.00;101685.47;4972496;28;20035;-87
2022/01/19 23:05:16;;;;;;;31.27;5.78;;;;;;;2.85;100.00;101677.53;4988548;28;20143;-87
2022/01/19 23:07:41;;;;;;;24.52;6.28;;;;;;;2.84;100.00;101682.91;4972570;28;20058;-87
2022/01/19 23:10:08;;;;;;;31.75;7.00;;;;;;;2.79;100.00;101675.25;4970673;28;20037;-87
2022/01/19 23:12:37;;;;;;;27.77;6.00;;;;;;;2.76;100.00;101675.41;4987705;28;20091;-88
2022/01/19 23:15:04;;;;;;;20.10;5.40;;;;;;;2.78;100.00;101678.81;4982229;28;20043;-86
2022/01/19 23:17:29;;;;;;;25.58;6.60;;;;;;;2.78;100.00;101688.56;4969547;28;20421;-87
2022/01/19 23:19:54;;;;;;;21.83;4.53;;;;;;;2.73;100.00;101694.13;4981910;28;20050;-86
2022/01/19 23:22:20;;;;;;;30.25;5.55;;;;;;;2.72;100.00;101676.53;4967421;28;20197;-86
2022/01/19 23:24:47;;;;;;;24.67;4.28;;;;;;;2.71;100.00;101682.78;4981233;28;20054;-86
2022/01/19 23:27:14;;;;;;;17.60;3.40;;;;;;;2.69;100.00;101674.06;4966699;28;20576;-87
2022/01/19 23:29:40;;;;;;;22.60;5.35;;;;;;;2.68;100.00;101688.28;4981927;28;20042;-87
2022/01/19 23:32:12;;;;;;;21.70;4.05;;;;;;;2.66;100.00;101696.31;4965363;28;20051;-86
2022/01/19 23:34:40;;;;;;;28.52;4.63;;;;;;;2.70;100.00;101681.06;4983803;28;20043;-86
2022/01/19 23:48:01;;;;;;;35.10;5.45;;;;;;;2.75;100.00;101686.97;4970570;28;20058;-87
2022/01/19 23:50:27;;;;;;;;;;;;;;;2.75;100.00;101679.00;4983512;28;20065;-87
2022/01/19 23:52:53;;;;;;;30.80;5.20;;;;;;;2.67;100.00;101682.09;4982078;28;19956;-86
2022/01/19 23:55:19;;;;;;;22.98;4.72;;;;;;;2.67;100.00;101689.19;4920708;28;20127;-87
2022/01/19 23:57:51;;;;;;;24.20;4.95;;;;;;;2.72;100.00;101695.09;4938722;28;20417;-87
